createdAt,value
2023-01-23T00:02:09.460Z,3.70
2023-01-23T00:05:11.127Z,3.90
2023-01-23T00:08:12.649Z,2.30
2023-01-23T00:11:18.557Z,3.50
2023-01-23T00:14:20.058Z,3.50
2023-01-23T00:17:21.530Z,3.30
2023-01-23T00:20:23.176Z,3.50
2023-01-23T00:23:24.678Z,3.70
2023-01-23T00:26:27.066Z,3.50
2023-01-23T00:29:28.599Z,3.60
2023-01-23T00:32:30.130Z,4.10
2023-01-23T00:35:33.949Z,3.70
2023-01-23T00:38:35.426Z,3.60
2023-01-23T00:41:36.920Z,3.60
2023-01-23T00:44:38.450Z,3.50
2023-01-23T00:47:39.955Z,3.40
2023-01-23T00:50:41.475Z,3.50
2023-01-23T00:53:43.409Z,3.60
2023-01-23T00:56:44.893Z,3.90
2023-01-23T00:59:46.388Z,3.70
2023-01-23T01:02:47.969Z,3.80
2023-01-23T01:05:49.473Z,3.40
2023-01-23T01:08:51.161Z,3.40
2023-01-23T01:11:52.759Z,3.90
2023-01-23T01:14:54.355Z,3.70
2023-01-23T01:17:56.071Z,3.50
2023-01-23T01:20:57.608Z,3.50
2023-01-23T01:23:59.167Z,3.50
2023-01-23T01:27:00.651Z,3.60
2023-01-23T01:30:02.297Z,3.50
2023-01-23T01:33:03.945Z,4.80
2023-01-23T01:36:12.618Z,3.50
2023-01-23T01:39:14.072Z,3.70
2023-01-23T01:42:15.553Z,2.50
2023-01-23T01:45:35.975Z,3.70
2023-01-23T01:48:42.461Z,3.50
2023-01-23T01:51:46.194Z,3.60
2023-01-23T01:54:56.225Z,3.70
2023-01-23T01:57:57.799Z,3.80
2023-01-23T02:00:59.365Z,3.40
2023-01-23T02:04:02.017Z,3.70
2023-01-23T02:07:08.897Z,3.50
2023-01-23T02:10:10.709Z,3.40
2023-01-23T02:13:30.275Z,3.80
2023-01-23T02:16:40.088Z,3.80
2023-01-23T02:20:00.572Z,3.70
2023-01-23T02:23:13.473Z,3.40
2023-01-23T02:26:19.891Z,3.60
2023-01-23T02:29:21.400Z,3.80
2023-01-23T02:32:24.408Z,3.60
2023-01-23T02:35:28.004Z,3.50
2023-01-23T02:38:31.421Z,3.70
2023-01-23T02:41:34.642Z,3.60
2023-01-23T02:44:36.181Z,3.60
2023-01-23T02:47:37.801Z,4.60
2023-01-23T02:50:39.394Z,3.80
2023-01-23T02:53:42.403Z,3.60
2023-01-23T02:56:44.287Z,3.30
2023-01-23T03:00:04.385Z,3.00
2023-01-23T03:03:05.989Z,3.10
2023-01-23T03:06:07.632Z,3.10
2023-01-23T03:09:10.818Z,3.10
2023-01-23T03:12:12.993Z,3.20
2023-01-23T03:15:14.508Z,3.30
2023-01-23T03:18:16.149Z,4.20
2023-01-23T03:21:17.613Z,3.40
2023-01-23T03:24:19.644Z,3.30
2023-01-23T03:27:21.135Z,3.40
2023-01-23T03:30:22.702Z,3.30
2023-01-23T03:33:24.343Z,3.20
2023-01-23T03:36:26.065Z,4.30
2023-01-23T03:39:47.884Z,3.50
2023-01-23T03:42:49.442Z,3.20
2023-01-23T03:45:50.986Z,3.50
2023-01-23T03:48:52.498Z,3.60
2023-01-23T03:51:53.971Z,3.60
2023-01-23T03:54:55.451Z,3.40
2023-01-23T03:57:56.950Z,3.20
2023-01-23T04:00:58.638Z,3.40
2023-01-23T04:04:00.163Z,3.50
2023-01-23T04:07:01.764Z,3.30
2023-01-23T04:10:03.412Z,3.40
2023-01-23T04:13:04.881Z,3.50
2023-01-23T04:16:07.013Z,3.30
2023-01-23T04:19:08.487Z,3.70
2023-01-23T04:22:10.388Z,3.70
2023-01-23T04:25:12.092Z,3.50
2023-01-23T04:28:13.586Z,3.70
2023-01-23T04:31:17.521Z,3.90
2023-01-23T04:34:20.904Z,3.40
2023-01-23T04:37:22.545Z,3.10
2023-01-23T04:40:24.004Z,3.80
2023-01-23T04:43:25.695Z,3.40
2023-01-23T04:46:27.281Z,3.60
2023-01-23T04:49:28.745Z,3.80
2023-01-23T04:52:30.423Z,3.30
2023-01-23T04:55:31.948Z,3.50
2023-01-23T04:58:33.444Z,3.50
2023-01-23T05:01:35.233Z,5.40
2023-01-23T05:04:36.800Z,3.60
2023-01-23T05:07:38.565Z,3.60
2023-01-23T05:10:40.073Z,3.50
2023-01-23T05:13:41.594Z,3.80
2023-01-23T05:16:43.150Z,3.60
2023-01-23T05:19:44.657Z,5.00
2023-01-23T05:22:52.816Z,3.60
2023-01-23T05:25:54.392Z,3.50
2023-01-23T05:28:55.877Z,3.70
2023-01-23T05:31:57.391Z,3.40
2023-01-23T05:34:58.869Z,3.50
2023-01-23T05:38:00.647Z,3.40
2023-01-23T05:41:02.228Z,3.70
2023-01-23T05:44:03.709Z,3.90
2023-01-23T05:47:05.386Z,3.70
2023-01-23T05:50:08.004Z,3.90
2023-01-23T05:53:09.480Z,3.60
2023-01-23T05:56:11.231Z,3.50
2023-01-23T05:59:12.737Z,3.70
2023-01-23T06:02:14.233Z,3.60
2023-01-23T06:05:15.779Z,3.80
2023-01-23T06:08:17.267Z,3.80
2023-01-23T06:11:18.778Z,3.60
2023-01-23T06:14:20.270Z,3.80
2023-01-23T06:17:21.750Z,3.90
2023-01-23T06:20:23.233Z,3.80
2023-01-23T06:23:24.773Z,3.80
2023-01-23T06:26:26.310Z,3.70
2023-01-23T06:29:27.782Z,3.70
2023-01-23T06:32:29.280Z,3.60
2023-01-23T06:35:30.762Z,3.60
2023-01-23T06:38:32.763Z,3.70
2023-01-23T06:41:34.268Z,3.90
2023-01-23T06:44:37.868Z,5.20
2023-01-23T06:47:39.342Z,3.60
2023-01-23T06:50:41.390Z,3.90
2023-01-23T06:53:42.870Z,3.50
2023-01-23T06:56:44.359Z,4.00
2023-01-23T06:59:45.898Z,3.80
2023-01-23T07:02:47.439Z,3.70
2023-01-23T07:05:49.050Z,3.80
2023-01-23T07:08:50.573Z,3.30
2023-01-23T07:11:52.100Z,3.70
2023-01-23T07:14:53.645Z,3.60
2023-01-23T07:17:55.141Z,3.70
2023-01-23T07:20:56.646Z,3.60
2023-01-23T07:23:58.175Z,3.70
2023-01-23T07:26:59.721Z,4.60
2023-01-23T07:30:01.300Z,3.70
2023-01-23T07:33:03.252Z,3.50
2023-01-23T07:36:05.883Z,6.10
2023-01-23T07:39:07.744Z,3.50
2023-01-23T07:42:10.085Z,3.80
2023-01-23T07:45:11.677Z,4.10
2023-01-23T07:48:13.205Z,3.60
2023-01-23T07:51:15.418Z,3.10
2023-01-23T07:54:23.887Z,3.90
2023-01-23T07:57:25.397Z,3.40
2023-01-23T08:00:29.594Z,3.80
2023-01-23T08:03:31.455Z,4.10
2023-01-23T08:06:34.089Z,4.10
2023-01-23T08:09:35.704Z,3.90
2023-01-23T08:12:37.253Z,3.60
2023-01-23T08:15:38.930Z,4.10
2023-01-23T08:18:40.526Z,3.70
2023-01-23T08:21:42.096Z,3.90
2023-01-23T08:24:43.695Z,3.80
2023-01-23T08:27:45.189Z,3.80
2023-01-23T08:30:46.789Z,3.70
2023-01-23T08:33:48.304Z,3.70
2023-01-23T08:36:50.138Z,4.00
2023-01-23T08:39:54.412Z,4.00
2023-01-23T08:42:57.414Z,3.70
2023-01-23T08:45:59.333Z,4.00
2023-01-23T08:49:00.992Z,3.90
2023-01-23T08:52:07.461Z,3.60
2023-01-23T08:55:09.422Z,3.70
2023-01-23T08:58:14.269Z,3.80
2023-01-23T09:01:17.297Z,5.00
2023-01-23T09:04:18.864Z,4.60
2023-01-23T09:07:20.407Z,4.00
2023-01-23T09:10:22.383Z,4.10
2023-01-23T09:13:24.052Z,4.50
2023-01-23T09:16:28.530Z,4.00
2023-01-23T09:19:30.691Z,4.00
2023-01-23T09:22:32.732Z,4.30
2023-01-23T09:25:34.212Z,4.10
2023-01-23T09:28:36.505Z,4.20
2023-01-23T09:31:38.019Z,4.10
2023-01-23T09:34:39.590Z,4.30
2023-01-23T09:38:00.016Z,4.30
2023-01-23T09:41:07.713Z,4.60
2023-01-23T09:44:14.771Z,4.10
2023-01-23T09:47:19.048Z,4.40
2023-01-23T09:50:23.844Z,4.30
2023-01-23T09:53:26.769Z,4.30
2023-01-23T09:56:29.964Z,4.40
2023-01-23T09:59:50.249Z,4.30
2023-01-23T10:02:56.710Z,4.60
2023-01-23T10:06:20.018Z,4.10
2023-01-23T10:09:21.531Z,4.10
2023-01-23T10:12:29.671Z,4.60
2023-01-23T10:15:43.112Z,4.30
2023-01-23T10:18:48.418Z,4.40
2023-01-23T10:22:01.474Z,4.60
2023-01-23T10:25:10.903Z,4.80
2023-01-23T10:28:27.569Z,4.50
2023-01-23T10:31:52.447Z,4.70
2023-01-23T10:34:53.942Z,4.70
2023-01-23T10:38:00.251Z,5.00
2023-01-23T10:41:14.328Z,4.60
2023-01-23T10:44:16.990Z,4.60
2023-01-23T10:47:32.017Z,4.60
2023-01-23T10:50:35.717Z,4.60
2023-01-23T10:53:37.213Z,4.70
2023-01-23T10:57:02.083Z,4.30
2023-01-23T11:00:30.132Z,4.40
2023-01-23T11:03:32.853Z,4.70
2023-01-23T11:06:34.389Z,4.20
2023-01-23T11:09:47.350Z,4.70
2023-01-23T11:12:50.041Z,4.70
2023-01-23T11:15:52.066Z,4.80
2023-01-23T11:19:02.644Z,4.80
2023-01-23T11:22:04.643Z,4.70
2023-01-23T11:25:38.591Z,6.00
2023-01-23T11:28:47.512Z,4.70
2023-01-23T11:32:03.917Z,4.60
2023-01-23T11:35:16.128Z,5.10
2023-01-23T11:38:27.345Z,5.10
2023-01-23T11:41:33.297Z,5.20
2023-01-23T11:44:44.970Z,5.00
2023-01-23T11:48:00.341Z,5.10
2023-01-23T11:51:01.806Z,4.70
2023-01-23T11:54:12.154Z,5.10
2023-01-23T11:57:22.952Z,5.10
2023-01-23T12:00:30.735Z,4.80
2023-01-23T12:07:58.656Z,5.10
2023-01-23T12:11:13.597Z,4.90
2023-01-23T12:14:27.015Z,5.20
2023-01-23T12:17:47.291Z,5.10
2023-01-23T12:21:12.110Z,4.80
2023-01-23T12:24:19.625Z,5.30
2023-01-23T12:27:21.065Z,5.10
2023-01-23T12:30:32.448Z,5.20
2023-01-23T12:33:43.528Z,5.50
2023-01-23T12:37:08.164Z,5.50
2023-01-23T12:40:17.787Z,5.40
2023-01-23T12:43:19.260Z,4.90
2023-01-23T12:46:33.858Z,5.30
2023-01-23T12:49:38.882Z,5.30
2023-01-23T12:52:47.949Z,5.00
2023-01-23T12:55:55.731Z,5.20
2023-01-23T12:59:10.315Z,5.00
2023-01-23T13:02:32.113Z,5.00
2023-01-23T13:05:36.806Z,5.10
2023-01-23T13:09:00.018Z,4.80
2023-01-23T13:12:12.545Z,5.20
2023-01-23T13:15:19.011Z,5.10
2023-01-23T13:18:27.665Z,5.10
2023-01-23T13:21:47.931Z,4.70
2023-01-23T13:25:12.866Z,5.90
2023-01-23T13:28:43.928Z,5.10
2023-01-23T13:31:49.969Z,5.00
2023-01-23T13:34:51.513Z,5.20
2023-01-23T13:37:53.273Z,5.50
2023-01-23T13:41:18.493Z,5.40
2023-01-23T13:44:27.100Z,5.00
2023-01-23T14:22:20.388Z,4.70
2023-01-23T14:25:22.277Z,4.90
2023-01-23T14:28:23.955Z,4.60
2023-01-23T14:31:28.293Z,5.10
2023-01-23T14:34:29.851Z,5.10
2023-01-23T14:37:34.495Z,5.00
2023-01-23T14:40:50.292Z,5.10
2023-01-23T14:43:53.381Z,4.80
2023-01-23T14:46:57.120Z,5.00
2023-01-23T14:49:59.132Z,4.70
2023-01-23T14:53:02.378Z,4.80
2023-01-23T14:56:04.112Z,4.90
2023-01-23T14:59:07.370Z,4.50
2023-01-23T15:02:26.079Z,4.60
2023-01-23T15:05:28.150Z,5.00
2023-01-23T15:08:32.168Z,4.70
2023-01-23T15:11:34.130Z,4.10
2023-01-23T15:14:37.342Z,4.70
2023-01-23T15:17:43.011Z,4.90
2023-01-23T15:20:52.435Z,4.70
2023-01-23T15:24:16.295Z,4.50
2023-01-23T15:27:24.181Z,4.90
2023-01-23T15:30:44.504Z,4.50
2023-01-23T15:33:47.569Z,4.80
2023-01-23T15:36:58.397Z,4.40
2023-01-23T15:40:03.153Z,4.60
2023-01-23T15:43:18.420Z,4.60
2023-01-23T15:50:41.338Z,4.60
2023-01-23T15:53:47.020Z,6.60
2023-01-23T15:56:53.804Z,5.60
2023-01-23T16:00:41.499Z,3.90
2023-01-23T16:07:45.177Z,4.60
2023-01-23T16:10:54.675Z,5.10
2023-01-23T16:13:56.243Z,4.40
2023-01-23T16:17:04.695Z,3.40
2023-01-23T16:20:22.082Z,4.50
2023-01-23T16:23:27.898Z,4.50
2023-01-23T16:26:31.151Z,4.50
2023-01-23T16:29:33.955Z,4.30
2023-01-23T16:32:35.819Z,6.70
2023-01-23T16:35:37.524Z,4.50
2023-01-23T16:38:39.208Z,4.70
2023-01-23T16:41:40.908Z,4.70
2023-01-23T16:44:42.402Z,6.20
2023-01-23T16:47:44.074Z,4.10
2023-01-23T16:50:47.460Z,4.60
2023-01-23T16:53:51.131Z,4.40
2023-01-23T16:56:54.075Z,4.60
2023-01-23T16:59:56.362Z,4.50
2023-01-23T17:03:00.503Z,4.60
2023-01-23T17:06:02.196Z,4.30
2023-01-23T17:09:03.786Z,4.30
2023-01-23T17:12:05.487Z,4.60
2023-01-23T17:25:27.084Z,5.40
2023-01-23T17:32:45.546Z,4.90
2023-01-23T17:35:48.929Z,5.10
2023-01-23T17:38:51.015Z,5.50
2023-01-23T17:41:52.805Z,5.40
2023-01-23T17:44:54.541Z,4.40
2023-01-23T17:47:56.318Z,4.60
2023-01-23T17:50:58.181Z,4.20
2023-01-23T17:53:59.675Z,4.70
2023-01-23T17:57:01.250Z,4.30
2023-01-23T18:00:04.065Z,4.10
2023-01-23T18:03:06.551Z,4.00
2023-01-23T18:06:08.144Z,4.50
2023-01-23T18:09:09.791Z,4.40
2023-01-23T18:12:16.795Z,4.30
2023-01-23T18:15:22.109Z,4.20
2023-01-23T18:18:23.733Z,4.50
2023-01-23T18:21:26.015Z,4.20
2023-01-23T18:24:31.783Z,4.40
2023-01-23T18:27:35.372Z,4.10
2023-01-23T18:30:50.905Z,4.40
2023-01-23T18:34:05.621Z,4.50
2023-01-23T18:37:27.192Z,4.20
2023-01-23T18:40:40.737Z,5.20
2023-01-23T18:43:49.323Z,4.60
2023-01-23T18:46:58.168Z,4.30
2023-01-23T18:49:59.839Z,4.00
2023-01-23T18:53:24.305Z,4.40
2023-01-23T18:56:32.265Z,4.40
2023-01-23T18:59:42.835Z,4.40
2023-01-23T19:02:46.758Z,4.50
2023-01-23T19:05:48.484Z,4.20
2023-01-23T19:08:50.788Z,4.10
2023-01-23T19:11:59.947Z,4.30
2023-01-23T19:15:14.328Z,5.70
2023-01-23T19:18:39.210Z,4.40
2023-01-23T19:21:42.109Z,4.30
2023-01-23T19:24:43.705Z,4.20
2023-01-23T19:27:52.181Z,6.00
2023-01-23T19:30:53.784Z,4.30
2023-01-23T19:33:55.878Z,4.40
2023-01-23T19:36:57.350Z,4.20
2023-01-23T19:39:58.825Z,4.40
2023-01-23T19:43:13.521Z,4.30
2023-01-23T19:46:15.765Z,4.40
2023-01-23T19:49:17.506Z,4.00
2023-01-23T19:52:21.690Z,4.40
2023-01-23T19:55:27.798Z,4.50
2023-01-23T19:58:30.946Z,4.30
2023-01-23T20:01:43.167Z,4.50
2023-01-23T20:04:44.947Z,4.50
2023-01-23T20:07:46.582Z,4.50
2023-01-23T20:10:48.065Z,4.40
2023-01-23T20:13:49.548Z,4.30
2023-01-23T20:16:51.305Z,4.40
2023-01-23T20:19:53.292Z,4.40
2023-01-23T20:22:55.059Z,4.50
2023-01-23T20:25:57.936Z,4.20
2023-01-23T20:28:59.504Z,4.30
2023-01-23T20:32:04.069Z,4.40
2023-01-23T20:35:05.752Z,4.00
2023-01-23T20:38:07.259Z,4.50
2023-01-23T20:41:10.205Z,4.50
2023-01-23T20:44:11.818Z,4.20
2023-01-23T20:47:13.649Z,5.30
2023-01-23T20:50:15.543Z,4.60
2023-01-23T20:53:34.050Z,4.40
2023-01-23T20:56:35.711Z,4.60
2023-01-23T20:59:37.208Z,4.20
2023-01-23T21:02:38.749Z,4.70
2023-01-23T21:05:40.287Z,4.60
2023-01-23T21:08:42.331Z,4.30
2023-01-23T21:11:43.881Z,4.60
2023-01-23T21:14:45.430Z,4.60
2023-01-23T21:17:46.930Z,4.60
2023-01-23T21:20:48.480Z,4.30
2023-01-23T21:23:50.481Z,5.80
2023-01-23T21:26:52.393Z,4.30
2023-01-23T21:29:53.940Z,4.20
2023-01-23T21:32:55.484Z,4.60
2023-01-23T21:35:57.034Z,4.20
2023-01-23T21:38:58.884Z,4.40
2023-01-23T21:42:00.355Z,4.50
2023-01-23T21:45:01.831Z,4.50
2023-01-23T21:48:03.703Z,4.50
2023-01-23T21:51:09.526Z,4.70
2023-01-23T21:54:11.148Z,4.50
2023-01-23T21:57:12.662Z,4.40
2023-01-23T22:00:32.998Z,4.20
2023-01-23T22:03:35.741Z,4.30
2023-01-23T22:06:38.115Z,4.70
2023-01-23T22:09:39.576Z,4.20
2023-01-23T22:12:41.178Z,4.40
2023-01-23T22:15:42.737Z,4.60
2023-01-23T22:18:44.583Z,4.60
2023-01-23T22:21:46.559Z,4.20
2023-01-23T22:24:48.345Z,4.30
2023-01-23T22:27:49.842Z,4.10
2023-01-23T22:31:16.772Z,4.20
2023-01-23T22:35:30.128Z,4.70
2023-01-23T22:38:22.489Z,6.60
2023-01-23T22:53:42.283Z,4.10
2023-01-23T22:56:46.826Z,4.60
2023-01-23T22:59:48.566Z,4.30
2023-01-23T23:02:50.821Z,4.40
2023-01-23T23:06:18.594Z,4.20
2023-01-23T23:09:20.095Z,4.90
2023-01-23T23:12:21.606Z,4.20
2023-01-23T23:15:23.554Z,4.30
2023-01-23T23:18:25.068Z,4.40
2023-01-23T23:21:31.503Z,4.40
2023-01-23T23:24:32.981Z,4.20
2023-01-23T23:27:34.457Z,4.80
2023-01-23T23:30:35.930Z,4.20
2023-01-23T23:33:37.829Z,4.40
2023-01-23T23:36:39.332Z,4.30
2023-01-23T23:39:40.823Z,3.90
2023-01-23T23:42:42.375Z,4.40
2023-01-23T23:45:47.442Z,3.90
2023-01-23T23:48:48.974Z,4.20
2023-01-23T23:51:50.537Z,4.10
2023-01-23T23:54:52.015Z,4.10
2023-01-23T23:57:53.500Z,4.30
